sensor_id;sensor_type;location;lat;lon;timestamp;temperature;humidity
19970;DHT22;10146;47.754;9.566;2023-08-21T00:01:30;22.10;99.90
19970;DHT22;10146;47.754;9.566;2023-08-21T00:03:56;22.10;99.90
19970;DHT22;10146;47.754;9.566;2023-08-21T00:06:21;22.00;99.90
19970;DHT22;10146;47.754;9.566;2023-08-21T00:08:47;21.90;99.90
19970;DHT22;10146;47.754;9.566;2023-08-21T00:11:13;21.90;99.90
19970;DHT22;10146;47.754;9.566;2023-08-21T00:13:38;21.90;99.90
19970;DHT22;10146;47.754;9.566;2023-08-21T00:16:04;21.80;99.90
19970;DHT22;10146;47.754;9.566;2023-08-21T00:18:29;21.80;99.90
19970;DHT22;10146;47.754;9.566;2023-08-21T00:20:55;21.80;99.90
19970;DHT22;10146;47.754;9.566;2023-08-21T00:23:21;21.90;99.90
19970;DHT22;10146;47.754;9.566;2023-08-21T00:25:47;21.90;99.90
19970;DHT22;10146;47.754;9.566;2023-08-21T00:28:13;21.90;99.90
19970;DHT22;10146;47.754;9.566;2023-08-21T00:30:39;21.90;99.90
19970;DHT22;10146;47.754;9.566;2023-08-21T00:33:04;22.00;99.90
19970;DHT22;10146;47.754;9.566;2023-08-21T00:35:30;21.90;99.90
19970;DHT22;10146;47.754;9.566;2023-08-21T00:37:56;21.80;99.90
19970;DHT22;10146;47.754;9.566;2023-08-21T00:40:22;21.80;99.90
19970;DHT22;10146;47.754;9.566;2023-08-21T00:42:47;21.70;99.90
19970;DHT22;10146;47.754;9.566;2023-08-21T00:45:13;21.60;99.90
19970;DHT22;10146;47.754;9.566;2023-08-21T00:47:39;21.50;99.90
19970;DHT22;10146;47.754;9.566;2023-08-21T00:50:07;21.40;99.90
19970;DHT22;10146;47.754;9.566;2023-08-21T00:52:34;21.40;99.90
19970;DHT22;10146;47.754;9.566;2023-08-21T00:55:00;21.40;99.90
19970;DHT22;10146;47.754;9.566;2023-08-21T00:57:27;21.30;99.90
19970;DHT22;10146;47.754;9.566;2023-08-21T00:59:53;21.20;99.90
19970;DHT22;10146;47.754;9.566;2023-08-21T01:02:18;21.20;99.90
19970;DHT22;10146;47.754;9.566;2023-08-21T01:04:44;21.20;99.90
19970;DHT22;10146;47.754;9.566;2023-08-21T01:07:10;21.20;99.90
19970;DHT22;10146;47.754;9.566;2023-08-21T01:09:42;21.20;99.90
19970;DHT22;10146;47.754;9.566;2023-08-21T01:12:37;21.30;99.90
19970;DHT22;10146;47.754;9.566;2023-08-21T01:15:07;21.30;99.90
19970;DHT22;10146;47.754;9.566;2023-08-21T01:17:34;21.30;99.90
19970;DHT22;10146;47.754;9.566;2023-08-21T01:20:01;21.30;99.90
19970;DHT22;10146;47.754;9.566;2023-08-21T01:22:38;21.20;99.90
19970;DHT22;10146;47.754;9.566;2023-08-21T01:25:08;21.20;99.90
19970;DHT22;10146;47.754;9.566;2023-08-21T01:27:36;21.20;99.90
19970;DHT22;10146;47.754;9.566;2023-08-21T01:30:03;21.10;99.90
19970;DHT22;10146;47.754;9.566;2023-08-21T01:32:32;21.10;99.90
19970;DHT22;10146;47.754;9.566;2023-08-21T01:35:00;21.10;99.90
19970;DHT22;10146;47.754;9.566;2023-08-21T01:37:27;21.20;99.90
19970;DHT22;10146;47.754;9.566;2023-08-21T01:39:53;21.10;99.90
19970;DHT22;10146;47.754;9.566;2023-08-21T01:42:19;21.10;99.90
19970;DHT22;10146;47.754;9.566;2023-08-21T01:44:44;21.10;99.90
19970;DHT22;10146;47.754;9.566;2023-08-21T01:47:13;21.10;99.90
19970;DHT22;10146;47.754;9.566;2023-08-21T01:49:38;21.00;99.90
19970;DHT22;10146;47.754;9.566;2023-08-21T01:52:04;21.00;99.90
19970;DHT22;10146;47.754;9.566;2023-08-21T01:54:30;20.90;99.90
19970;DHT22;10146;47.754;9.566;2023-08-21T01:56:55;20.80;99.90
19970;DHT22;10146;47.754;9.566;2023-08-21T01:59:23;20.80;99.90
19970;DHT22;10146;47.754;9.566;2023-08-21T02:01:49;20.70;99.90
19970;DHT22;10146;47.754;9.566;2023-08-21T02:04:15;20.80;99.90
19970;DHT22;10146;47.754;9.566;2023-08-21T02:06:41;20.80;99.90
19970;DHT22;10146;47.754;9.566;2023-08-21T02:09:06;20.70;99.90
19970;DHT22;10146;47.754;9.566;2023-08-21T02:11:32;20.60;99.90
19970;DHT22;10146;47.754;9.566;2023-08-21T02:13:57;20.60;99.90
19970;DHT22;10146;47.754;9.566;2023-08-21T02:16:23;20.60;99.90
19970;DHT22;10146;47.754;9.566;2023-08-21T02:18:49;20.50;99.90
19970;DHT22;10146;47.754;9.566;2023-08-21T02:21:14;20.50;99.90
19970;DHT22;10146;47.754;9.566;2023-08-21T02:23:40;20.50;99.90
19970;DHT22;10146;47.754;9.566;2023-08-21T02:26:05;20.50;99.90
19970;DHT22;10146;47.754;9.566;2023-08-21T02:28:31;20.40;99.90
19970;DHT22;10146;47.754;9.566;2023-08-21T02:30:56;20.40;99.90
19970;DHT22;10146;47.754;9.566;2023-08-21T02:33:22;20.40;99.90
19970;DHT22;10146;47.754;9.566;2023-08-21T02:35:48;20.50;99.90
19970;DHT22;10146;47.754;9.566;2023-08-21T02:38:13;20.40;99.90
19970;DHT22;10146;47.754;9.566;2023-08-21T02:40:39;20.50;99.90
19970;DHT22;10146;47.754;9.566;2023-08-21T02:43:05;20.40;99.90
19970;DHT22;10146;47.754;9.566;2023-08-21T02:45:30;20.40;99.90
19970;DHT22;10146;47.754;9.566;2023-08-21T02:47:56;20.20;99.90
19970;DHT22;10146;47.754;9.566;2023-08-21T02:50:22;20.20;99.90
19970;DHT22;10146;47.754;9.566;2023-08-21T02:52:47;20.30;99.90
19970;DHT22;10146;47.754;9.566;2023-08-21T02:55:13;20.20;99.90
19970;DHT22;10146;47.754;9.566;2023-08-21T02:57:39;20.30;99.90
19970;DHT22;10146;47.754;9.566;2023-08-21T03:00:05;20.30;99.90
19970;DHT22;10146;47.754;9.566;2023-08-21T03:02:33;20.30;99.90
19970;DHT22;10146;47.754;9.566;2023-08-21T03:04:59;20.30;99.90
19970;DHT22;10146;47.754;9.566;2023-08-21T03:07:24;20.20;99.90
19970;DHT22;10146;47.754;9.566;2023-08-21T03:09:50;20.20;99.90
19970;DHT22;10146;47.754;9.566;2023-08-21T03:12:16;20.10;99.90
19970;DHT22;10146;47.754;9.566;2023-08-21T03:14:41;20.20;99.90
19970;DHT22;10146;47.754;9.566;2023-08-21T03:17:07;20.10;99.90
19970;DHT22;10146;47.754;9.566;2023-08-21T03:19:33;20.10;99.90
19970;DHT22;10146;47.754;9.566;2023-08-21T03:21:58;20.10;99.90
19970;DHT22;10146;47.754;9.566;2023-08-21T03:24:24;20.10;99.90
19970;DHT22;10146;47.754;9.566;2023-08-21T03:26:49;19.90;99.90
19970;DHT22;10146;47.754;9.566;2023-08-21T03:29:15;20.00;99.90
19970;DHT22;10146;47.754;9.566;2023-08-21T03:31:41;19.90;99.90
19970;DHT22;10146;47.754;9.566;2023-08-21T03:34:06;19.90;99.90
19970;DHT22;10146;47.754;9.566;2023-08-21T03:36:32;19.80;99.90
19970;DHT22;10146;47.754;9.566;2023-08-21T03:38:58;19.80;99.90
19970;DHT22;10146;47.754;9.566;2023-08-21T03:41:24;19.80;99.90
19970;DHT22;10146;47.754;9.566;2023-08-21T03:43:50;19.80;99.90
19970;DHT22;10146;47.754;9.566;2023-08-21T03:46:15;19.90;99.90
19970;DHT22;10146;47.754;9.566;2023-08-21T03:48:41;19.90;99.90
19970;DHT22;10146;47.754;9.566;2023-08-21T03:51:06;19.90;99.90
19970;DHT22;10146;47.754;9.566;2023-08-21T03:53:32;19.90;99.90
19970;DHT22;10146;47.754;9.566;2023-08-21T03:55:58;19.90;99.90
19970;DHT22;10146;47.754;9.566;2023-08-21T03:58:23;19.80;99.90
19970;DHT22;10146;47.754;9.566;2023-08-21T04:00:51;19.80;99.90
19970;DHT22;10146;47.754;9.566;2023-08-21T04:03:16;19.90;99.90
19970;DHT22;10146;47.754;9.566;2023-08-21T04:05:42;19.90;99.90
19970;DHT22;10146;47.754;9.566;2023-08-21T04:08:08;19.90;99.90
19970;DHT22;10146;47.754;9.566;2023-08-21T04:10:33;19.90;99.90
19970;DHT22;10146;47.754;9.566;2023-08-21T04:12:59;19.80;99.90
19970;DHT22;10146;47.754;9.566;2023-08-21T04:15:25;19.70;99.90
19970;DHT22;10146;47.754;9.566;2023-08-21T04:17:51;19.80;99.90
19970;DHT22;10146;47.754;9.566;2023-08-21T04:20:19;19.80;99.90
19970;DHT22;10146;47.754;9.566;2023-08-21T04:22:45;19.80;99.90
19970;DHT22;10146;47.754;9.566;2023-08-21T04:25:11;19.80;99.90
19970;DHT22;10146;47.754;9.566;2023-08-21T04:27:36;19.80;99.90
19970;DHT22;10146;47.754;9.566;2023-08-21T04:30:02;19.70;99.90
19970;DHT22;10146;47.754;9.566;2023-08-21T04:32:28;19.70;99.90
19970;DHT22;10146;47.754;9.566;2023-08-21T04:34:54;19.70;99.90
19970;DHT22;10146;47.754;9.566;2023-08-21T04:37:19;19.70;99.90
19970;DHT22;10146;47.754;9.566;2023-08-21T04:39:46;19.70;99.90
19970;DHT22;10146;47.754;9.566;2023-08-21T04:42:15;19.70;99.90
19970;DHT22;10146;47.754;9.566;2023-08-21T04:44:40;19.70;99.90
19970;DHT22;10146;47.754;9.566;2023-08-21T04:47:23;19.70;99.90
19970;DHT22;10146;47.754;9.566;2023-08-21T04:49:52;19.70;99.90
19970;DHT22;10146;47.754;9.566;2023-08-21T04:52:19;19.70;99.90
19970;DHT22;10146;47.754;9.566;2023-08-21T04:54:45;19.70;99.90
19970;DHT22;10146;47.754;9.566;2023-08-21T04:57:11;19.70;99.90
19970;DHT22;10146;47.754;9.566;2023-08-21T04:59:38;19.70;99.90
19970;DHT22;10146;47.754;9.566;2023-08-21T05:02:04;19.70;99.90
19970;DHT22;10146;47.754;9.566;2023-08-21T05:04:29;19.70;99.90
19970;DHT22;10146;47.754;9.566;2023-08-21T05:06:58;19.80;99.90
19970;DHT22;10146;47.754;9.566;2023-08-21T05:09:23;19.80;99.90
19970;DHT22;10146;47.754;9.566;2023-08-21T05:11:49;19.90;99.90
19970;DHT22;10146;47.754;9.566;2023-08-21T05:14:14;19.90;99.90
19970;DHT22;10146;47.754;9.566;2023-08-21T05:16:40;20.00;99.90
19970;DHT22;10146;47.754;9.566;2023-08-21T05:19:05;20.00;99.90
19970;DHT22;10146;47.754;9.566;2023-08-21T05:21:31;20.00;99.90
19970;DHT22;10146;47.754;9.566;2023-08-21T05:23:56;20.10;99.90
19970;DHT22;10146;47.754;9.566;2023-08-21T05:26:22;20.10;99.90
19970;DHT22;10146;47.754;9.566;2023-08-21T05:28:48;20.20;99.90
19970;DHT22;10146;47.754;9.566;2023-08-21T05:31:13;20.20;99.90
19970;DHT22;10146;47.754;9.566;2023-08-21T05:33:39;20.30;99.90
19970;DHT22;10146;47.754;9.566;2023-08-21T05:36:05;20.40;99.90
19970;DHT22;10146;47.754;9.566;2023-08-21T05:38:31;20.40;99.90
19970;DHT22;10146;47.754;9.566;2023-08-21T05:40:57;20.40;99.90
19970;DHT22;10146;47.754;9.566;2023-08-21T05:43:23;20.40;99.90
19970;DHT22;10146;47.754;9.566;2023-08-21T05:45:49;20.50;99.90
19970;DHT22;10146;47.754;9.566;2023-08-21T05:48:15;20.60;99.90
19970;DHT22;10146;47.754;9.566;2023-08-21T05:50:42;20.60;99.90
19970;DHT22;10146;47.754;9.566;2023-08-21T05:53:07;20.70;99.90
19970;DHT22;10146;47.754;9.566;2023-08-21T05:55:33;20.80;99.90
19970;DHT22;10146;47.754;9.566;2023-08-21T05:57:59;20.90;99.90
19970;DHT22;10146;47.754;9.566;2023-08-21T06:00:24;21.00;99.90
19970;DHT22;10146;47.754;9.566;2023-08-21T06:02:50;21.00;99.90
19970;DHT22;10146;47.754;9.566;2023-08-21T06:05:15;21.10;99.90
19970;DHT22;10146;47.754;9.566;2023-08-21T06:07:41;21.20;99.90
19970;DHT22;10146;47.754;9.566;2023-08-21T06:10:07;21.20;99.90
19970;DHT22;10146;47.754;9.566;2023-08-21T06:12:34;21.20;99.90
19970;DHT22;10146;47.754;9.566;2023-08-21T06:14:59;21.10;99.90
19970;DHT22;10146;47.754;9.566;2023-08-21T06:17:27;21.10;99.90
19970;DHT22;10146;47.754;9.566;2023-08-21T06:19:52;21.10;99.90
19970;DHT22;10146;47.754;9.566;2023-08-21T06:22:18;21.00;99.90
19970;DHT22;10146;47.754;9.566;2023-08-21T06:24:43;21.10;99.90
19970;DHT22;10146;47.754;9.566;2023-08-21T06:27:09;21.20;99.90
19970;DHT22;10146;47.754;9.566;2023-08-21T06:29:35;21.30;99.90
19970;DHT22;10146;47.754;9.566;2023-08-21T06:32:02;21.50;99.90
19970;DHT22;10146;47.754;9.566;2023-08-21T06:34:28;21.70;99.90
19970;DHT22;10146;47.754;9.566;2023-08-21T06:36:54;21.90;99.90
19970;DHT22;10146;47.754;9.566;2023-08-21T06:39:19;22.10;99.90
19970;DHT22;10146;47.754;9.566;2023-08-21T06:41:45;22.30;99.90
19970;DHT22;10146;47.754;9.566;2023-08-21T06:44:11;22.50;99.90
19970;DHT22;10146;47.754;9.566;2023-08-21T06:46:36;22.70;99.90
19970;DHT22;10146;47.754;9.566;2023-08-21T06:49:02;22.80;99.90
19970;DHT22;10146;47.754;9.566;2023-08-21T06:51:28;22.90;99.90
19970;DHT22;10146;47.754;9.566;2023-08-21T06:53:53;23.00;99.90
19970;DHT22;10146;47.754;9.566;2023-08-21T06:56:19;23.10;99.90
19970;DHT22;10146;47.754;9.566;2023-08-21T06:58:44;23.10;99.90
19970;DHT22;10146;47.754;9.566;2023-08-21T07:01:10;23.20;99.90
19970;DHT22;10146;47.754;9.566;2023-08-21T07:03:35;23.30;99.90
19970;DHT22;10146;47.754;9.566;2023-08-21T07:06:01;23.40;99.90
19970;DHT22;10146;47.754;9.566;2023-08-21T07:08:28;23.50;99.90
19970;DHT22;10146;47.754;9.566;2023-08-21T07:10:54;23.60;99.90
19970;DHT22;10146;47.754;9.566;2023-08-21T07:13:20;23.70;99.90
19970;DHT22;10146;47.754;9.566;2023-08-21T07:15:47;23.80;99.90
19970;DHT22;10146;47.754;9.566;2023-08-21T07:18:13;24.00;99.90
19970;DHT22;10146;47.754;9.566;2023-08-21T07:20:38;24.10;99.90
19970;DHT22;10146;47.754;9.566;2023-08-21T07:23:04;24.10;99.90
19970;DHT22;10146;47.754;9.566;2023-08-21T07:25:30;24.10;99.90
19970;DHT22;10146;47.754;9.566;2023-08-21T07:27:56;24.10;99.90
19970;DHT22;10146;47.754;9.566;2023-08-21T07:30:22;24.10;99.90
19970;DHT22;10146;47.754;9.566;2023-08-21T07:32:48;24.10;99.90
19970;DHT22;10146;47.754;9.566;2023-08-21T07:35:14;24.10;99.90
19970;DHT22;10146;47.754;9.566;2023-08-21T07:37:43;24.20;99.90
19970;DHT22;10146;47.754;9.566;2023-08-21T07:40:09;24.30;99.90
19970;DHT22;10146;47.754;9.566;2023-08-21T07:42:35;24.50;99.90
19970;DHT22;10146;47.754;9.566;2023-08-21T07:45:01;24.60;99.90
19970;DHT22;10146;47.754;9.566;2023-08-21T07:47:27;24.60;99.90
19970;DHT22;10146;47.754;9.566;2023-08-21T07:49:53;24.70;99.90
19970;DHT22;10146;47.754;9.566;2023-08-21T07:52:19;24.70;99.90
19970;DHT22;10146;47.754;9.566;2023-08-21T07:54:45;24.70;99.90
19970;DHT22;10146;47.754;9.566;2023-08-21T07:57:11;24.90;99.90
19970;DHT22;10146;47.754;9.566;2023-08-21T07:59:36;25.10;99.90
19970;DHT22;10146;47.754;9.566;2023-08-21T08:02:02;25.20;99.90
19970;DHT22;10146;47.754;9.566;2023-08-21T08:04:28;25.20;99.90
19970;DHT22;10146;47.754;9.566;2023-08-21T08:06:54;25.30;99.90
19970;DHT22;10146;47.754;9.566;2023-08-21T08:09:19;25.30;99.90
19970;DHT22;10146;47.754;9.566;2023-08-21T08:11:45;25.50;99.90
19970;DHT22;10146;47.754;9.566;2023-08-21T08:14:10;25.60;99.90
19970;DHT22;10146;47.754;9.566;2023-08-21T08:16:36;25.70;99.90
19970;DHT22;10146;47.754;9.566;2023-08-21T08:19:02;25.80;99.90
19970;DHT22;10146;47.754;9.566;2023-08-21T08:21:27;25.90;99.90
19970;DHT22;10146;47.754;9.566;2023-08-21T08:23:53;26.00;99.90
19970;DHT22;10146;47.754;9.566;2023-08-21T08:26:18;26.10;99.90
19970;DHT22;10146;47.754;9.566;2023-08-21T08:28:44;26.20;99.90
19970;DHT22;10146;47.754;9.566;2023-08-21T08:31:17;26.30;99.90
19970;DHT22;10146;47.754;9.566;2023-08-21T08:33:42;26.40;99.90
19970;DHT22;10146;47.754;9.566;2023-08-21T08:36:08;26.40;99.90
19970;DHT22;10146;47.754;9.566;2023-08-21T08:38:34;26.50;99.90
19970;DHT22;10146;47.754;9.566;2023-08-21T08:41:02;26.60;99.90
19970;DHT22;10146;47.754;9.566;2023-08-21T08:43:34;26.70;99.90
19970;DHT22;10146;47.754;9.566;2023-08-21T08:46:02;26.80;99.90
19970;DHT22;10146;47.754;9.566;2023-08-21T08:48:29;26.70;99.90
19970;DHT22;10146;47.754;9.566;2023-08-21T08:50:54;26.80;99.90
19970;DHT22;10146;47.754;9.566;2023-08-21T08:53:20;26.90;99.90
19970;DHT22;10146;47.754;9.566;2023-08-21T08:55:46;27.00;99.90
19970;DHT22;10146;47.754;9.566;2023-08-21T08:58:12;27.10;99.90
19970;DHT22;10146;47.754;9.566;2023-08-21T09:00:37;27.20;99.90
19970;DHT22;10146;47.754;9.566;2023-08-21T09:03:04;27.30;99.90
19970;DHT22;10146;47.754;9.566;2023-08-21T09:05:30;27.30;99.90
19970;DHT22;10146;47.754;9.566;2023-08-21T09:08:22;27.50;99.90
19970;DHT22;10146;47.754;9.566;2023-08-21T09:10:48;27.60;99.90
19970;DHT22;10146;47.754;9.566;2023-08-21T09:13:16;27.60;99.90
19970;DHT22;10146;47.754;9.566;2023-08-21T09:15:43;27.60;99.90
19970;DHT22;10146;47.754;9.566;2023-08-21T09:18:10;27.70;99.90
19970;DHT22;10146;47.754;9.566;2023-08-21T09:20:36;27.80;99.90
19970;DHT22;10146;47.754;9.566;2023-08-21T09:23:02;27.80;99.90
19970;DHT22;10146;47.754;9.566;2023-08-21T09:25:43;27.90;99.90
19970;DHT22;10146;47.754;9.566;2023-08-21T09:28:09;27.90;99.90
19970;DHT22;10146;47.754;9.566;2023-08-21T09:30:52;28.00;99.90
19970;DHT22;10146;47.754;9.566;2023-08-21T09:33:19;28.10;99.90
19970;DHT22;10146;47.754;9.566;2023-08-21T09:35:45;28.10;99.90
19970;DHT22;10146;47.754;9.566;2023-08-21T09:38:11;28.00;99.90
19970;DHT22;10146;47.754;9.566;2023-08-21T09:40:50;28.10;99.90
19970;DHT22;10146;47.754;9.566;2023-08-21T09:43:20;28.30;99.90
19970;DHT22;10146;47.754;9.566;2023-08-21T09:45:47;28.40;99.90
19970;DHT22;10146;47.754;9.566;2023-08-21T09:48:13;28.50;99.90
19970;DHT22;10146;47.754;9.566;2023-08-21T09:50:39;28.60;99.90
19970;DHT22;10146;47.754;9.566;2023-08-21T09:53:08;28.70;99.90
19970;DHT22;10146;47.754;9.566;2023-08-21T09:55:35;28.80;99.90
19970;DHT22;10146;47.754;9.566;2023-08-21T09:58:02;28.90;99.90
19970;DHT22;10146;47.754;9.566;2023-08-21T10:00:32;29.00;99.90
19970;DHT22;10146;47.754;9.566;2023-08-21T10:03:04;29.10;99.90
19970;DHT22;10146;47.754;9.566;2023-08-21T10:05:31;29.30;99.90
19970;DHT22;10146;47.754;9.566;2023-08-21T10:08:02;29.50;99.90
19970;DHT22;10146;47.754;9.566;2023-08-21T10:10:32;29.60;99.90
19970;DHT22;10146;47.754;9.566;2023-08-21T10:12:59;29.70;99.90
19970;DHT22;10146;47.754;9.566;2023-08-21T10:15:27;29.80;99.90
19970;DHT22;10146;47.754;9.566;2023-08-21T10:17:53;29.80;99.90
19970;DHT22;10146;47.754;9.566;2023-08-21T10:20:23;29.70;99.90
19970;DHT22;10146;47.754;9.566;2023-08-21T10:22:52;29.80;99.90
19970;DHT22;10146;47.754;9.566;2023-08-21T10:25:23;29.90;99.90
19970;DHT22;10146;47.754;9.566;2023-08-21T10:27:58;30.10;99.90
19970;DHT22;10146;47.754;9.566;2023-08-21T10:30:29;30.10;99.90
19970;DHT22;10146;47.754;9.566;2023-08-21T10:32:57;30.10;99.90
19970;DHT22;10146;47.754;9.566;2023-08-21T10:35:28;30.30;99.90
19970;DHT22;10146;47.754;9.566;2023-08-21T10:38:10;30.30;99.90
19970;DHT22;10146;47.754;9.566;2023-08-21T10:40:37;30.40;99.90
19970;DHT22;10146;47.754;9.566;2023-08-21T10:43:03;30.40;99.90
19970;DHT22;10146;47.754;9.566;2023-08-21T10:45:31;30.50;99.90
19970;DHT22;10146;47.754;9.566;2023-08-21T10:47:58;30.60;99.90
19970;DHT22;10146;47.754;9.566;2023-08-21T10:50:24;30.80;99.90
19970;DHT22;10146;47.754;9.566;2023-08-21T10:52:52;30.90;99.90
19970;DHT22;10146;47.754;9.566;2023-08-21T10:55:18;31.00;99.90
19970;DHT22;10146;47.754;9.566;2023-08-21T10:57:47;31.20;99.90
19970;DHT22;10146;47.754;9.566;2023-08-21T11:00:14;31.20;99.90
19970;DHT22;10146;47.754;9.566;2023-08-21T11:02:43;31.30;99.90
19970;DHT22;10146;47.754;9.566;2023-08-21T11:05:10;31.30;99.90
19970;DHT22;10146;47.754;9.566;2023-08-21T11:07:46;31.40;99.90
19970;DHT22;10146;47.754;9.566;2023-08-21T11:10:15;31.50;99.90
19970;DHT22;10146;47.754;9.566;2023-08-21T11:12:52;31.50;99.90
19970;DHT22;10146;47.754;9.566;2023-08-21T11:15:18;31.50;99.90
19970;DHT22;10146;47.754;9.566;2023-08-21T11:18:01;31.50;99.90
19970;DHT22;10146;47.754;9.566;2023-08-21T11:20:31;31.60;99.90
19970;DHT22;10146;47.754;9.566;2023-08-21T11:23:04;31.70;99.90
19970;DHT22;10146;47.754;9.566;2023-08-21T11:25:34;31.80;99.90
19970;DHT22;10146;47.754;9.566;2023-08-21T11:28:00;31.90;99.90
19970;DHT22;10146;47.754;9.566;2023-08-21T11:30:30;31.90;99.90
19970;DHT22;10146;47.754;9.566;2023-08-21T11:33:12;31.90;99.90
19970;DHT22;10146;47.754;9.566;2023-08-21T11:35:39;31.90;99.90
19970;DHT22;10146;47.754;9.566;2023-08-21T11:38:05;31.80;99.90
19970;DHT22;10146;47.754;9.566;2023-08-21T11:40:34;31.90;99.90
19970;DHT22;10146;47.754;9.566;2023-08-21T11:43:01;32.00;99.90
19970;DHT22;10146;47.754;9.566;2023-08-21T11:45:27;32.10;99.90
19970;DHT22;10146;47.754;9.566;2023-08-21T11:47:55;32.20;99.90
19970;DHT22;10146;47.754;9.566;2023-08-21T11:50:21;32.30;99.90
19970;DHT22;10146;47.754;9.566;2023-08-21T11:52:47;32.40;99.90
19970;DHT22;10146;47.754;9.566;2023-08-21T11:55:17;32.40;99.90
19970;DHT22;10146;47.754;9.566;2023-08-21T11:57:50;32.40;99.90
19970;DHT22;10146;47.754;9.566;2023-08-21T12:00:17;32.60;99.90
19970;DHT22;10146;47.754;9.566;2023-08-21T12:02:58;32.60;99.90
19970;DHT22;10146;47.754;9.566;2023-08-21T12:05:26;32.60;99.90
19970;DHT22;10146;47.754;9.566;2023-08-21T12:07:52;32.60;99.90
19970;DHT22;10146;47.754;9.566;2023-08-21T12:10:25;32.60;99.90
19970;DHT22;10146;47.754;9.566;2023-08-21T12:12:51;32.60;99.90
19970;DHT22;10146;47.754;9.566;2023-08-21T12:15:17;32.70;99.90
19970;DHT22;10146;47.754;9.566;2023-08-21T12:17:43;32.70;99.90
19970;DHT22;10146;47.754;9.566;2023-08-21T12:20:09;32.90;99.90
19970;DHT22;10146;47.754;9.566;2023-08-21T12:22:38;33.20;99.90
19970;DHT22;10146;47.754;9.566;2023-08-21T12:25:04;33.40;99.90
19970;DHT22;10146;47.754;9.566;2023-08-21T12:27:31;33.70;99.80
19970;DHT22;10146;47.754;9.566;2023-08-21T12:29:56;33.60;99.90
19970;DHT22;10146;47.754;9.566;2023-08-21T12:32:22;33.60;98.70
19970;DHT22;10146;47.754;9.566;2023-08-21T12:34:47;33.60;99.90
19970;DHT22;10146;47.754;9.566;2023-08-21T12:37:13;33.70;99.90
19970;DHT22;10146;47.754;9.566;2023-08-21T12:39:39;33.70;99.10
19970;DHT22;10146;47.754;9.566;2023-08-21T12:42:05;33.70;97.90
19970;DHT22;10146;47.754;9.566;2023-08-21T12:44:33;33.80;98.10
19970;DHT22;10146;47.754;9.566;2023-08-21T12:46:59;33.70;97.00
19970;DHT22;10146;47.754;9.566;2023-08-21T12:49:25;33.80;96.90
19970;DHT22;10146;47.754;9.566;2023-08-21T12:51:50;33.90;94.20
19970;DHT22;10146;47.754;9.566;2023-08-21T12:54:16;33.80;94.40
19970;DHT22;10146;47.754;9.566;2023-08-21T12:56:41;33.90;95.00
19970;DHT22;10146;47.754;9.566;2023-08-21T12:59:07;34.10;94.60
19970;DHT22;10146;47.754;9.566;2023-08-21T13:01:32;34.30;94.40
19970;DHT22;10146;47.754;9.566;2023-08-21T13:04:00;34.40;93.50
19970;DHT22;10146;47.754;9.566;2023-08-21T13:06:26;34.70;92.50
19970;DHT22;10146;47.754;9.566;2023-08-21T13:08:52;35.00;90.80
19970;DHT22;10146;47.754;9.566;2023-08-21T13:11:17;35.20;89.20
19970;DHT22;10146;47.754;9.566;2023-08-21T13:13:43;35.20;90.90
19970;DHT22;10146;47.754;9.566;2023-08-21T13:16:09;35.30;88.50
19970;DHT22;10146;47.754;9.566;2023-08-21T13:18:34;35.30;87.30
19970;DHT22;10146;47.754;9.566;2023-08-21T13:21:00;35.50;87.00
19970;DHT22;10146;47.754;9.566;2023-08-21T13:23:28;35.60;87.70
19970;DHT22;10146;47.754;9.566;2023-08-21T13:25:54;35.60;81.80
19970;DHT22;10146;47.754;9.566;2023-08-21T13:28:19;35.70;82.60
19970;DHT22;10146;47.754;9.566;2023-08-21T13:30:45;35.90;80.80
19970;DHT22;10146;47.754;9.566;2023-08-21T13:33:10;36.00;81.20
19970;DHT22;10146;47.754;9.566;2023-08-21T13:35:36;36.20;82.10
19970;DHT22;10146;47.754;9.566;2023-08-21T13:38:02;36.30;76.00
19970;DHT22;10146;47.754;9.566;2023-08-21T13:40:29;36.20;77.60
19970;DHT22;10146;47.754;9.566;2023-08-21T13:42:54;36.30;77.20
19970;DHT22;10146;47.754;9.566;2023-08-21T13:45:20;36.10;74.90
19970;DHT22;10146;47.754;9.566;2023-08-21T13:47:47;36.30;74.90
19970;DHT22;10146;47.754;9.566;2023-08-21T13:50:15;36.50;74.80
19970;DHT22;10146;47.754;9.566;2023-08-21T13:52:41;36.70;75.40
19970;DHT22;10146;47.754;9.566;2023-08-21T13:55:08;36.80;71.70
19970;DHT22;10146;47.754;9.566;2023-08-21T13:57:35;36.90;72.40
19970;DHT22;10146;47.754;9.566;2023-08-21T14:00:03;36.90;72.20
19970;DHT22;10146;47.754;9.566;2023-08-21T14:02:33;37.00;71.40
19970;DHT22;10146;47.754;9.566;2023-08-21T14:05:00;37.30;69.50
19970;DHT22;10146;47.754;9.566;2023-08-21T14:07:25;37.30;67.60
19970;DHT22;10146;47.754;9.566;2023-08-21T14:09:51;37.40;67.10
19970;DHT22;10146;47.754;9.566;2023-08-21T14:12:16;37.40;67.50
19970;DHT22;10146;47.754;9.566;2023-08-21T14:14:42;37.40;65.50
19970;DHT22;10146;47.754;9.566;2023-08-21T14:17:08;37.50;65.60
19970;DHT22;10146;47.754;9.566;2023-08-21T14:19:33;37.70;65.00
19970;DHT22;10146;47.754;9.566;2023-08-21T14:21:59;37.80;64.00
19970;DHT22;10146;47.754;9.566;2023-08-21T14:24:25;37.80;64.30
19970;DHT22;10146;47.754;9.566;2023-08-21T14:26:51;38.00;62.80
19970;DHT22;10146;47.754;9.566;2023-08-21T14:29:17;38.00;62.40
19970;DHT22;10146;47.754;9.566;2023-08-21T14:31:42;38.10;62.50
19970;DHT22;10146;47.754;9.566;2023-08-21T14:34:08;38.20;63.70
19970;DHT22;10146;47.754;9.566;2023-08-21T14:36:33;38.20;63.30
19970;DHT22;10146;47.754;9.566;2023-08-21T14:38:59;38.20;64.20
19970;DHT22;10146;47.754;9.566;2023-08-21T14:41:25;38.40;63.20
19970;DHT22;10146;47.754;9.566;2023-08-21T14:43:50;38.40;60.20
19970;DHT22;10146;47.754;9.566;2023-08-21T14:46:16;38.30;61.00
19970;DHT22;10146;47.754;9.566;2023-08-21T14:48:41;38.10;61.40
19970;DHT22;10146;47.754;9.566;2023-08-21T14:51:07;38.40;58.50
19970;DHT22;10146;47.754;9.566;2023-08-21T14:53:33;38.50;58.50
19970;DHT22;10146;47.754;9.566;2023-08-21T14:55:58;38.50;57.80
19970;DHT22;10146;47.754;9.566;2023-08-21T14:58:24;38.60;54.70
19970;DHT22;10146;47.754;9.566;2023-08-21T15:00:53;38.60;54.80
19970;DHT22;10146;47.754;9.566;2023-08-21T15:03:19;38.50;54.00
19970;DHT22;10146;47.754;9.566;2023-08-21T15:05:45;38.60;54.90
19970;DHT22;10146;47.754;9.566;2023-08-21T15:08:10;38.60;54.70
19970;DHT22;10146;47.754;9.566;2023-08-21T15:10:36;38.70;54.30
19970;DHT22;10146;47.754;9.566;2023-08-21T15:13:02;38.80;52.30
19970;DHT22;10146;47.754;9.566;2023-08-21T15:15:27;38.90;51.10
19970;DHT22;10146;47.754;9.566;2023-08-21T15:17:53;39.00;52.40
19970;DHT22;10146;47.754;9.566;2023-08-21T15:20:19;39.20;52.40
19970;DHT22;10146;47.754;9.566;2023-08-21T15:22:46;39.00;49.90
19970;DHT22;10146;47.754;9.566;2023-08-21T15:25:12;39.10;51.30
19970;DHT22;10146;47.754;9.566;2023-08-21T15:27:38;39.20;50.30